07/02 20:00 更新

3,000ftに雲が少し
6,000ftに雲が散在

地上風: 170°7kt

上空風
13,000ft: 未計測
10,000ft: 230°13kt
 7,000ft: 270°10kt
 3,000ft: 180°12kt

地上: 28℃
上空: 2.9℃

日没: 19:01

RJTJ 021100Z 17007KT 9999 FEW030 SCT060 28/19 Q1007 RMK 1CU030 4SC060 A2975=